Time;durP1;ratioP1;P1;durP2;ratioP2;P2;SDS_P1;SDS_P2;PMS_P1;PMS_P2;Temp;Humidity;BMP_temperature;BMP_pressure;BME280_temperature;BME280_humidity;BME280_pressure;Samples;Min_cycle;Max_cycle;Signal;HPM_P1;HPM_P2
2022/09/16 00:01:27;;;;;;;6.40;1.90;;;16.30;4.90;;;;;;5033023;28;20630;-89
2022/09/16 00:04:10;;;;;;;5.23;1.70;;;16.40;12.50;;;;;;5032339;28;20568;-88
2022/09/16 00:07:08;;;;;;;6.93;1.97;;;16.30;16.90;;;;;;5032639;28;20224;-88
2022/09/16 00:09:58;;;;;;;5.00;1.93;;;16.30;17.30;;;;;;5032227;28;20181;-89
2022/09/16 00:12:33;;;;;;;5.27;1.70;;;16.30;19.70;;;;;;5016506;28;20195;-89
2022/09/16 00:15:21;;;;;;;11.13;2.20;;;16.20;21.30;;;;;;5032550;28;20212;-90
2022/09/16 00:18:19;;;;;;;6.20;1.57;;;16.10;23.80;;;;;;5040742;28;20209;-88
2022/09/16 00:20:53;;;;;;;9.03;2.33;;;16.10;25.00;;;;;;5042244;28;20261;-89
2022/09/16 00:23:28;;;;;;;5.90;2.13;;;16.00;25.20;;;;;;5047292;28;20146;-87
2022/09/16 00:26:01;;;;;;;5.50;2.00;;;16.00;22.60;;;;;;5057239;28;20191;-89
2022/09/16 00:28:51;;;;;;;8.27;1.90;;;16.00;23.90;;;;;;5052695;28;20260;-90
2022/09/16 00:31:35;;;;;;;6.43;1.63;;;15.90;25.90;;;;;;5028828;28;20181;-90
2022/09/16 00:34:22;;;;;;;6.93;1.60;;;15.70;28.60;;;;;;5048887;28;20279;-89
2022/09/16 00:37:08;;;;;;;7.43;2.00;;;15.60;30.00;;;;;;5045390;28;20196;-90
2022/09/16 00:42:59;;;;;;;6.23;1.90;;;15.50;33.40;;;;;;5061154;28;20296;-89
2022/09/16 00:46:07;;;;;;;5.10;1.53;;;15.50;29.70;;;;;;5021178;28;20186;-89
2022/09/16 00:48:35;;;;;;;7.67;1.70;;;15.50;29.20;;;;;;5020380;28;20182;-89
2022/09/16 00:51:09;;;;;;;5.93;1.57;;;15.50;29.40;;;;;;5038986;28;20185;-89
2022/09/16 00:54:05;;;;;;;8.37;1.90;;;15.50;30.20;;;;;;5021118;28;20169;-89
2022/09/16 01:00:15;;;;;;;6.63;1.50;;;15.40;31.10;;;;;;5061305;28;20162;-88
2022/09/16 01:02:50;;;;;;;4.90;1.67;;;15.40;30.00;;;;;;5046337;28;20233;-89
2022/09/16 01:08:42;;;;;;;4.10;1.50;;;15.40;28.20;;;;;;5038207;28;20169;-89
2022/09/16 01:21:00;;;;;;;5.70;1.50;;;15.40;27.00;;;;;;5047833;28;20165;-90
2022/09/16 01:24:19;;;;;;;4.37;1.50;;;15.40;27.50;;;;;;5020561;28;20181;-90
2022/09/16 01:27:08;;;;;;;7.97;2.00;;;15.40;27.80;;;;;;4976178;28;20247;-89
2022/09/16 01:30:12;;;;;;;4.90;1.67;;;15.40;25.30;;;;;;5020377;28;20169;-89
2022/09/16 01:37:10;;;;;;;;;;;;;;;;;;;;;
2022/09/16 01:40:30;;;;;;;3.90;1.70;;;15.20;26.50;;;;;;4965386;29;20805;-88
2022/09/16 01:43:24;;;;;;;3.70;1.33;;;15.20;26.40;;;;;;4955637;28;20219;-89
2022/09/16 01:46:02;;;;;;;4.83;1.37;;;15.20;29.30;;;;;;5035441;28;20220;-89
2022/09/16 01:55:42;;;;;;;3.77;1.43;;;15.40;35.80;;;;;;5036386;28;20179;-88
2022/09/16 01:58:16;;;;;;;5.80;1.77;;;15.40;34.80;;;;;;5035052;28;20215;-88
2022/09/16 02:01:08;;;;;;;6.63;1.70;;;15.40;30.40;;;;;;5034539;28;20255;-89
2022/09/16 02:07:33;;;;;;;5.13;1.50;;;15.20;36.00;;;;;;5037639;28;20184;-88
2022/09/16 02:10:18;;;;;;;5.37;1.40;;;15.20;30.60;;;;;;5036923;28;20181;-88
2022/09/16 02:13:36;;;;;;;4.53;1.77;;;15.20;25.20;;;;;;5037664;28;20623;-88
2022/09/16 02:16:34;;;;;;;5.93;1.70;;;15.10;22.00;;;;;;5045788;28;20172;-88
2022/09/16 02:19:42;;;;;;;6.63;1.63;;;15.00;27.10;;;;;;5039491;28;20641;-88
2022/09/16 02:22:24;;;;;;;4.93;1.77;;;15.10;25.20;;;;;;5044174;28;20188;-88
2022/09/16 02:28:51;;;;;;;4.87;1.63;;;15.10;19.10;;;;;;5050943;28;20171;-88
2022/09/16 02:31:22;;;;;;;5.90;1.60;;;15.10;17.10;;;;;;5048079;28;20183;-88
2022/09/16 02:34:28;;;;;;;5.27;1.30;;;15.10;12.30;;;;;;5045256;28;20174;-88
2022/09/16 02:40:54;;;;;;;3.50;1.47;;;15.10;12.90;;;;;;5051528;28;20232;-88
2022/09/16 02:43:22;;;;;;;4.30;1.53;;;15.30;11.50;;;;;;5049319;28;20242;-88
2022/09/16 02:49:25;;;;;;;2.80;1.10;;;15.40;1.00;;;;;;5057546;28;20170;-88
2022/09/16 02:55:48;;;;;;;3.37;1.40;;;15.20;3.50;;;;;;5061110;28;20170;-89
2022/09/16 02:58:33;;;;;;;5.93;1.40;;;15.30;1.40;;;;;;5041978;28;20214;-89
2022/09/16 03:02:29;;;;;;;6.43;1.70;;;15.30;2.10;;;;;;5062818;28;20257;-88
2022/09/16 03:05:39;;;;;;;3.83;1.33;;;15.30;7.40;;;;;;5067396;28;20186;-88
2022/09/16 03:07:46;;;;;;;4.73;1.43;;;15.10;11.90;;;;;;5047946;28;20219;-89
2022/09/16 03:10:38;;;;;;;3.27;1.20;;;15.20;13.70;;;;;;5056700;28;20167;-88
2022/09/16 03:27:25;;;;;;;2.87;1.10;;;15.10;16.40;;;;;;5067242;28;20164;-88
2022/09/16 03:33:39;;;;;;;5.27;1.47;;;15.00;19.50;;;;;;5064367;28;20177;-89
2022/09/16 03:36:32;;;;;;;6.07;1.70;;;15.00;17.50;;;;;;5026826;28;20234;-89
2022/09/16 03:39:21;;;;;;;4.43;1.57;;;15.00;19.50;;;;;;5047873;28;20226;-88
2022/09/16 03:42:13;;;;;;;7.90;1.97;;;15.00;22.20;;;;;;5055824;28;20195;-89
2022/09/16 03:44:56;;;;;;;5.63;1.60;;;14.80;23.90;;;;;;5047382;28;20311;-88
2022/09/16 03:47:57;;;;;;;3.47;1.73;;;14.80;26.90;;;;;;5056229;28;20636;-88
2022/09/16 03:50:35;;;;;;;7.77;1.70;;;14.80;24.80;;;;;;5036126;28;20218;-88
2022/09/16 03:53:15;;;;;;;3.87;1.47;;;14.70;23.50;;;;;;5035282;28;20239;-88
2022/09/16 03:56:05;;;;;;;4.53;1.70;;;14.80;22.40;;;;;;5039991;28;20177;-88
2022/09/16 04:02:05;;;;;;;4.60;1.20;;;14.90;22.00;;;;;;5058964;28;20163;-89
2022/09/16 04:15:26;;;;;;;12.17;1.70;;;14.60;24.50;;;;;;4973321;29;20194;-88
2022/09/16 04:18:01;;;;;;;6.53;1.80;;;14.70;21.60;;;;;;4960075;29;20278;-88
2022/09/16 04:21:22;;;;;;;6.23;1.73;;;14.50;23.00;;;;;;4948580;29;20206;-89
2022/09/16 04:23:53;;;;;;;4.03;1.30;;;14.50;24.60;;;;;;4965699;29;20175;-88
2022/09/16 04:26:39;;;;;;;5.57;1.57;;;14.50;22.30;;;;;;5039982;28;20238;-89
2022/09/16 04:29:29;;;;;;;4.33;1.60;;;14.50;24.80;;;;;;5042660;28;20184;-88
2022/09/16 04:32:14;;;;;;;4.77;1.70;;;14.50;26.00;;;;;;5069615;28;20178;-88
2022/09/16 04:35:18;;;;;;;7.97;1.57;;;14.40;27.00;;;;;;5070740;28;20171;-88
2022/09/16 04:37:53;;;;;;;8.37;1.70;;;14.40;26.40;;;;;;5052639;28;20217;-89
2022/09/16 04:40:21;;;;;;;5.97;1.63;;;14.60;24.20;;;;;;5076601;28;20448;-88
2022/09/16 04:52:57;;;;;;;5.23;1.57;;;14.40;26.00;;;;;;5057446;28;20153;-88
2022/09/16 04:55:26;;;;;;;6.67;1.77;;;14.40;25.40;;;;;;5043502;28;20190;-87
2022/09/16 04:58:45;;;;;;;4.93;1.50;;;14.30;27.90;;;;;;5057145;28;20230;-88
2022/09/16 05:01:25;;;;;;;6.10;1.90;;;14.30;29.20;;;;;;5053916;28;20215;-89
2022/09/16 05:04:13;;;;;;;3.70;1.50;;;14.40;29.10;;;;;;5033798;28;20233;-89
2022/09/16 05:10:13;;;;;;;3.83;1.80;;;14.40;28.70;;;;;;5051112;28;20163;-88
2022/09/16 05:13:08;;;;;;;12.20;1.90;;;14.40;29.00;;;;;;5051573;28;20211;-88
2022/09/16 05:16:05;;;;;;;5.47;2.10;;;14.50;29.90;;;;;;5052739;28;20154;-88
2022/09/16 05:21:54;;;;;;;3.60;1.30;;;14.30;28.40;;;;;;5049719;28;20172;-88
2022/09/16 05:24:53;;;;;;;5.40;1.50;;;14.20;30.00;;;;;;5036397;28;20162;-89
2022/09/16 05:27:53;;;;;;;6.23;1.73;;;14.20;31.80;;;;;;5043282;28;20186;-88
2022/09/16 05:34:37;;;;;;;6.80;1.90;;;14.40;31.70;;;;;;5043188;28;20163;-88
2022/09/16 05:44:16;;;;;;;7.30;2.20;;;14.20;38.40;;;;;;5047445;28;20209;-87
2022/09/16 05:46:46;;;;;;;4.77;1.80;;;14.30;37.70;;;;;;5032868;28;20277;-88
2022/09/16 05:49:20;;;;;;;13.20;2.40;;;14.30;38.00;;;;;;5043132;28;20185;-88
2022/09/16 05:51:47;;;;;;;4.27;1.57;;;14.30;40.90;;;;;;5048423;28;20278;-88
2022/09/16 05:54:19;;;;;;;6.30;1.90;;;14.30;42.00;;;;;;5056714;28;20168;-89
2022/09/16 05:56:49;;;;;;;7.20;2.00;;;14.30;42.20;;;;;;5057609;28;20166;-88
2022/09/16 06:00:32;;;;;;;6.87;1.77;;;14.40;42.70;;;;;;5047122;28;20196;-88
2022/09/16 06:09:28;;;;;;;5.87;1.47;;;14.50;45.80;;;;;;5044280;28;20173;-89
2022/09/16 06:12:07;;;;;;;6.10;1.70;;;14.50;46.50;;;;;;5028111;28;20182;-89
2022/09/16 06:19:30;;;;;;;5.00;1.87;;;14.30;57.40;;;;;;4950398;28;20300;-88
2022/09/16 06:22:35;;;;;;;7.63;1.87;;;14.40;57.70;;;;;;4927683;29;20231;-90
2022/09/16 06:25:13;;;;;;;9.40;2.67;;;14.30;61.90;;;;;;4933511;29;20188;-88
2022/09/16 06:27:39;;;;;;;7.43;3.57;;;14.40;61.50;;;;;;4917367;29;20197;-89
2022/09/16 06:30:43;;;;;;;6.43;1.80;;;14.40;64.80;;;;;;4922027;29;20210;-88
2022/09/16 06:37:26;;;;;;;;;;;;;;;;;;;;;
2022/09/16 06:40:16;;;;;;;7.43;2.17;;;14.40;72.60;;;;;;4958047;28;20282;-89
2022/09/16 06:46:49;;;;;;;;;;;;;;;;;;;;;
2022/09/16 06:52:56;;;;;;;4.33;1.60;;;14.30;68.00;;;;;;5051753;28;20196;-88
2022/09/16 06:55:34;;;;;;;8.33;2.50;;;14.30;72.80;;;;;;5021927;28;20183;-88
2022/09/16 06:58:23;;;;;;;8.00;2.43;;;14.30;78.30;;;;;;5031094;28;20203;-89
2022/09/16 07:01:16;;;;;;;6.13;2.50;;;14.30;79.60;;;;;;5036564;28;20207;-88
2022/09/16 07:04:12;;;;;;;8.40;2.40;;;14.30;79.80;;;;;;5030872;28;20213;-88
2022/09/16 07:07:03;;;;;;;6.87;1.60;;;14.30;82.30;;;;;;5028176;28;20246;-89
2022/09/16 07:10:22;;;;;;;5.43;1.90;;;14.40;81.40;;;;;;5030381;28;20206;-89
2022/09/16 07:13:07;;;;;;;6.90;1.80;;;14.30;80.50;;;;;;5030282;28;20181;-88
2022/09/16 07:15:59;;;;;;;8.87;2.20;;;14.30;82.10;;;;;;5025889;28;20171;-88
2022/09/16 07:19:18;;;;;;;6.03;1.53;;;14.30;83.20;;;;;;5027249;28;20552;-89
2022/09/16 07:22:35;;;;;;;;;;;;;;;;;;;;;
2022/09/16 07:25:38;;;;;;;6.30;1.80;;;14.00;87.60;;;;;;5039853;28;20252;-88
2022/09/16 07:31:50;;;;;;;7.60;2.40;;;13.70;90.70;;;;;;5048338;28;20165;-89
2022/09/16 07:34:44;;;;;;;7.10;1.93;;;13.80;91.40;;;;;;5016508;28;20187;-89
2022/09/16 07:37:21;;;;;;;5.77;1.53;;;13.70;91.10;;;;;;5030186;28;20261;-89
2022/09/16 07:39:53;;;;;;;5.43;1.60;;;13.70;90.00;;;;;;5026165;28;20193;-89
2022/09/16 07:42:40;;;;;;;;;;;;;;;;;;;;;
2022/09/16 07:46:19;;;;;;;7.23;1.90;;;13.90;87.20;;;;;;5050810;28;20220;-89
2022/09/16 07:48:50;;;;;;;7.23;1.53;;;14.10;85.20;;;;;;5044832;28;20205;-89
2022/09/16 07:51:28;;;;;;;8.73;1.57;;;13.90;83.60;;;;;;5038901;28;20213;-88
2022/09/16 07:58:15;;;;;;;5.77;1.60;;;14.00;84.00;;;;;;4991777;28;20227;-89
2022/09/16 08:04:43;;;;;;;5.63;1.37;;;13.90;76.40;;;;;;4989822;28;20343;-88
2022/09/16 08:11:18;;;;;;;5.27;1.30;;;14.20;77.20;;;;;;4989968;28;20605;-88
2022/09/16 08:14:47;;;;;;;3.27;1.20;;;14.40;73.70;;;;;;4981570;28;20173;-88
2022/09/16 08:17:13;;;;;;;4.67;1.20;;;14.40;71.30;;;;;;4970469;28;20213;-88
2022/09/16 08:20:29;;;;;;;3.83;0.93;;;14.40;71.70;;;;;;4989474;28;20179;-88
2022/09/16 08:27:52;;;;;;;;;;;;;;;;;;;;;
2022/09/16 08:30:06;;;;;;;4.13;1.60;;;14.50;67.60;;;;;;5015520;28;20580;-89
2022/09/16 08:32:35;;;;;;;7.40;1.50;;;14.60;69.40;;;;;;5028013;28;20182;-90
2022/09/16 08:35:01;;;;;;;3.97;1.67;;;14.60;70.60;;;;;;5027200;28;20176;-91
2022/09/16 08:37:33;;;;;;;5.60;1.87;;;14.60;69.30;;;;;;5027722;28;20256;-90
2022/09/16 08:40:21;;;;;;;8.47;4.50;;;14.50;68.30;;;;;;5049595;28;20247;-90
2022/09/16 08:43:28;;;;;;;6.93;2.17;;;14.60;72.80;;;;;;5043835;28;20219;-89
2022/09/16 08:49:38;;;;;;;5.50;1.60;;;14.30;77.90;;;;;;5059549;28;20246;-90
2022/09/16 08:59:28;;;;;;;4.80;1.70;;;13.70;91.10;;;;;;5052924;28;20214;-90
2022/09/16 09:02:27;;;;;;;4.80;1.70;;;13.70;92.40;;;;;;5039777;28;20163;-90
2022/09/16 09:05:02;;;;;;;6.17;2.00;;;14.00;93.70;;;;;;5034518;28;20240;-89
2022/09/16 09:07:31;;;;;;;5.23;2.10;;;13.80;93.50;;;;;;5032710;28;20167;-89
2022/09/16 09:10:48;;;;;;;7.00;2.50;;;13.80;94.00;;;;;;5032506;28;20181;-89
2022/09/16 09:17:23;;;;;;;4.93;1.80;;;13.80;93.80;;;;;;5047825;28;20229;-90
2022/09/16 09:24:21;;;;;;;;;;;;;;;;;;;;;
2022/09/16 09:27:41;;;;;;;9.60;3.03;;;14.10;91.40;;;;;;4943104;28;20206;-90
2022/09/16 09:35:02;;;;;;;;;;;;;;;;;;;;;
2022/09/16 09:41:58;;;;;;;4.30;1.20;;;14.20;76.50;;;;;;4918300;29;20255;-89
2022/09/16 09:45:21;;;;;;;3.43;1.40;;;14.30;68.70;;;;;;4910271;29;20186;-90
2022/09/16 09:48:36;;;;;;;7.43;1.77;;;14.60;67.40;;;;;;4944783;29;20212;-90
2022/09/16 09:55:15;;;;;;;5.37;1.70;;;14.80;54.40;;;;;;4965691;28;20185;-88
2022/09/16 09:58:09;;;;;;;5.80;2.13;;;15.10;46.50;;;;;;5018661;28;20272;-88
2022/09/16 10:00:41;;;;;;;5.33;2.30;;;15.30;39.30;;;;;;5057268;28;20197;-89
2022/09/16 10:03:44;;;;;;;6.47;1.70;;;15.40;32.90;;;;;;5056058;28;20180;-89
2022/09/16 10:06:23;;;;;;;4.70;1.40;;;15.50;27.30;;;;;;5053280;28;20180;-89
2022/09/16 10:09:28;;;;;;;5.33;1.63;;;15.50;30.80;;;;;;5051835;28;20166;-90
2022/09/16 10:12:00;;;;;;;2.77;1.40;;;15.60;36.10;;;;;;5048441;28;20191;-90
2022/09/16 10:14:45;;;;;;;3.50;1.30;;;15.80;34.60;;;;;;5043907;28;20532;-89
2022/09/16 10:20:37;;;;;;;4.27;1.73;;;15.70;21.90;;;;;;5052282;28;20192;-90
2022/09/16 10:23:57;;;;;;;4.87;1.40;;;15.70;15.20;;;;;;5031971;28;20200;-90
2022/09/16 10:30:03;;;;;;;3.97;1.20;;;15.70;17.70;;;;;;5052413;28;20238;-88
2022/09/16 10:36:01;;;;;;;4.83;1.10;;;14.90;23.90;;;;;;5049560;28;20606;-89
2022/09/16 10:41:54;;;;;;;6.50;3.50;;;14.00;67.50;;;;;;5047874;28;20290;-89
2022/09/16 10:48:06;;;;;;;5.93;1.87;;;14.30;63.00;;;;;;5061540;28;20201;-89
2022/09/16 10:51:27;;;;;;;6.87;1.47;;;14.50;58.20;;;;;;5053222;28;20202;-89
2022/09/16 10:54:09;;;;;;;4.43;1.60;;;14.60;56.30;;;;;;5052183;28;20187;-90
2022/09/16 10:56:58;;;;;;;3.83;1.17;;;14.80;58.50;;;;;;5071395;28;20167;-90
2022/09/16 11:03:49;;;;;;;5.93;1.93;;;15.10;51.50;;;;;;5069270;28;20168;-90
2022/09/16 11:07:08;;;;;;;6.30;1.97;;;15.20;49.30;;;;;;5063398;28;20644;-89
2022/09/16 11:09:55;;;;;;;4.43;1.47;;;15.50;46.30;;;;;;5051574;28;20189;-90
2022/09/16 11:12:39;;;;;;;5.20;1.30;;;15.60;38.90;;;;;;5043764;28;20539;-88
2022/09/16 11:15:29;;;;;;;2.27;0.90;;;15.50;35.50;;;;;;5048846;28;20165;-88
2022/09/16 11:18:21;;;;;;;2.53;1.20;;;15.40;34.50;;;;;;5051518;28;20280;-89
2022/09/16 11:21:17;;;;;;;3.30;1.40;;;15.20;32.30;;;;;;5052468;28;20199;-88
2022/09/16 11:27:55;;;;;;;6.00;1.40;;;14.90;27.20;;;;;;5072727;28;20193;-89
2022/09/16 11:34:26;;;;;;;5.23;1.27;;;14.60;40.70;;;;;;5072605;28;20165;-89
2022/09/16 11:40:34;;;;;;;4.33;1.50;;;14.40;37.10;;;;;;4975602;28;20198;-89
2022/09/16 11:43:39;;;;;;;2.77;1.50;;;14.50;40.50;;;;;;5051044;28;20194;-89
2022/09/16 11:50:02;;;;;;;3.40;1.20;;;14.40;46.00;;;;;;5069680;28;20206;-90
2022/09/16 11:56:25;;;;;;;7.40;2.80;;;14.10;61.10;;;;;;5047962;28;20246;-90
2022/09/16 11:59:23;;;;;;;4.77;1.67;;;13.80;67.30;;;;;;5028007;28;20217;-90
2022/09/16 12:02:35;;;;;;;4.30;1.23;;;13.70;76.90;;;;;;5041075;28;20212;-90
2022/09/16 12:05:52;;;;;;;6.50;1.57;;;13.50;85.30;;;;;;5042848;28;20154;-90
2022/09/16 12:08:38;;;;;;;4.20;0.90;;;13.50;87.90;;;;;;5027824;28;20177;-90
2022/09/16 12:11:32;;;;;;;3.73;1.40;;;13.40;81.90;;;;;;5024873;28;20181;-90
2022/09/16 12:14:37;;;;;;;5.13;1.07;;;13.50;79.80;;;;;;5024787;28;20174;-89
2022/09/16 12:17:30;;;;;;;4.37;1.13;;;13.50;74.80;;;;;;4945466;29;20185;-88
2022/09/16 12:20:41;;;;;;;4.80;1.30;;;13.40;82.40;;;;;;4952657;29;20185;-88
2022/09/16 12:23:34;;;;;;;3.53;1.10;;;13.30;85.10;;;;;;4958442;29;20630;-89
2022/09/16 12:30:00;;;;;;;3.57;1.37;;;13.50;80.50;;;;;;4974788;29;20241;-88
2022/09/16 12:33:24;;;;;;;2.17;0.73;;;13.60;78.70;;;;;;4952560;29;20180;-89
2022/09/16 12:39:21;;;;;;;4.37;1.20;;;13.60;73.60;;;;;;4968204;28;20216;-89
2022/09/16 12:42:17;;;;;;;2.90;1.37;;;13.90;73.60;;;;;;5035527;28;20198;-88
2022/09/16 12:45:42;;;;;;;6.47;2.30;;;14.20;72.70;;;;;;5053154;28;20220;-87
2022/09/16 12:48:50;;;;;;;4.93;1.57;;;14.60;66.40;;;;;;5035049;28;20179;-87
2022/09/16 12:55:18;;;;;;;5.23;1.23;;;15.10;55.60;;;;;;4975456;29;20217;-88
2022/09/16 12:58:16;;;;;;;3.50;1.37;;;15.20;52.40;;;;;;4959271;29;20241;-89
2022/09/16 13:07:53;;;;;;;6.40;1.60;;;14.80;60.80;;;;;;5061189;28;20173;-89
2022/09/16 13:10:41;;;;;;;4.20;1.37;;;14.80;67.20;;;;;;5059664;28;20220;-88
2022/09/16 13:13:21;;;;;;;6.10;1.73;;;14.80;62.80;;;;;;5055393;28;20165;-88
2022/09/16 13:16:18;;;;;;;;;;;;;;;;;;;;;
2022/09/16 13:22:32;;;;;;;5.23;1.80;;;15.10;66.20;;;;;;5061901;22;20221;-88
2022/09/16 13:25:42;;;;;;;5.47;1.73;;;15.10;60.00;;;;;;5119574;28;20189;-89
2022/09/16 13:28:55;;;;;;;6.17;1.57;;;15.30;63.20;;;;;;5119848;28;20209;-89
2022/09/16 13:32:12;;;;;;;6.50;1.33;;;15.40;61.40;;;;;;5113656;28;20167;-89
2022/09/16 13:34:58;;;;;;;4.30;2.13;;;15.40;55.00;;;;;;5091505;28;20168;-89
2022/09/16 13:41:07;;;;;;;3.93;1.00;;;14.20;23.20;;;;;;5098489;28;20199;-88
2022/09/16 13:44:29;;;;;;;5.77;1.10;;;13.40;47.00;;;;;;5078243;28;20192;-88
2022/09/16 13:47:18;;;;;;;2.57;0.70;;;13.40;65.80;;;;;;5083997;28;20183;-87
2022/09/16 13:50:36;;;;;;;2.10;0.80;;;13.30;66.50;;;;;;5062014;28;20189;-89
2022/09/16 13:54:01;;;;;;;;;;;;;;;;;;;;;
2022/09/16 13:57:06;;;;;;;3.13;0.90;;;13.50;62.10;;;;;;5037898;28;20185;-90
2022/09/16 14:03:35;;;;;;;2.87;0.90;;;13.60;58.70;;;;;;5036240;28;20208;-88
2022/09/16 14:10:02;;;;;;;2.67;1.00;;;14.10;58.40;;;;;;5033760;28;20161;-88
2022/09/16 14:13:10;;;;;;;;;;;;;;;;;;;;;
2022/09/16 14:16:05;;;;;;;2.00;0.70;;;14.60;33.20;;;;;;5077996;28;20170;-87
2022/09/16 14:19:05;;;;;;;1.60;0.70;;;14.80;21.00;;;;;;5061159;28;20206;-90
2022/09/16 14:21:34;;;;;;;2.50;0.80;;;14.60;19.50;;;;;;5058461;28;20206;-86
2022/09/16 14:27:42;;;;;;;1.90;0.73;;;14.80;24.70;;;;;;5079380;28;20161;-86
2022/09/16 14:30:20;;;;;;;4.17;0.70;;;15.10;21.70;;;;;;5074471;28;20165;-87
2022/09/16 14:32:56;;;;;;;1.73;0.67;;;15.00;28.90;;;;;;5043593;28;20191;-87
2022/09/16 14:35:54;;;;;;;3.70;0.87;;;14.90;29.20;;;;;;5054286;28;20182;-85
2022/09/16 14:39:14;;;;;;;1.33;0.60;;;14.60;41.90;;;;;;5061481;28;20206;-86
2022/09/16 14:45:19;;;;;;;1.57;0.57;;;14.10;32.10;;;;;;5071346;28;20191;-86
2022/09/16 14:47:46;;;;;;;4.33;0.50;;;14.20;22.40;;;;;;5049572;28;20212;-84
2022/09/16 14:50:48;;;;;;;1.33;0.60;;;14.00;15.90;;;;;;5069416;28;20234;-86
2022/09/16 14:53:37;;;;;;;1.03;0.50;;;14.20;19.10;;;;;;5051691;28;20201;-86
2022/09/16 14:56:20;;;;;;;1.47;0.40;;;14.20;10.90;;;;;;5072224;28;20634;-86
2022/09/16 15:02:50;;;;;;;1.77;0.70;;;14.60;1.20;;;;;;5071174;28;20172;-86
2022/09/16 15:05:43;;;;;;;0.83;0.50;;;14.80;4.80;;;;;;5072107;28;20178;-88
2022/09/16 15:08:38;;;;;;;0.93;0.40;;;14.70;1.00;;;;;;5073232;28;20166;-89
2022/09/16 15:11:44;;;;;;;3.20;0.53;;;14.50;1.00;;;;;;5060708;28;20254;-84
2022/09/16 15:14:09;;;;;;;1.17;0.50;;;14.60;1.00;;;;;;5079102;28;20178;-86
2022/09/16 15:16:46;;;;;;;1.33;0.53;;;14.70;1.00;;;;;;5080363;28;20174;-84
2022/09/16 15:22:47;;;;;;;3.63;1.10;;;15.00;1.00;;;;;;5090343;28;20187;-88
2022/09/16 15:28:56;;;;;;;3.90;2.33;;;15.00;1.00;;;;;;5090725;28;20737;-88
2022/09/16 15:31:39;;;;;;;3.97;2.03;;;15.30;1.00;;;;;;5072052;28;20172;-89
2022/09/16 15:34:46;;;;;;;3.47;1.20;;;15.40;1.00;;;;;;5071967;28;20187;-87
2022/09/16 15:37:29;;;;;;;2.97;1.70;;;15.50;1.00;;;;;;5071395;28;20182;-88
2022/09/16 15:43:51;;;;;;;3.30;0.97;;;14.90;1.00;;;;;;5088997;28;20198;-87
2022/09/16 15:46:29;;;;;;;4.10;1.20;;;14.70;4.90;;;;;;5072837;28;20206;-86
2022/09/16 15:49:03;;;;;;;2.90;1.00;;;14.60;9.60;;;;;;5069471;28;20174;-88
2022/09/16 15:51:46;;;;;;;2.93;1.20;;;14.50;13.30;;;;;;5054217;28;20193;-89
2022/09/16 15:55:02;;;;;;;2.57;0.87;;;14.60;15.00;;;;;;5090011;28;20170;-88
2022/09/16 15:57:49;;;;;;;3.37;1.00;;;14.70;10.50;;;;;;5090499;28;20206;-89
2022/09/16 16:00:23;;;;;;;1.67;0.90;;;15.10;6.50;;;;;;5071202;28;20234;-88
2022/09/16 16:03:22;;;;;;;2.57;0.90;;;15.80;1.00;;;;;;5073593;28;20174;-87
2022/09/16 16:06:36;;;;;;;4.53;1.00;;;15.60;1.00;;;;;;5076307;28;20697;-87
2022/09/16 16:12:28;;;;;;;2.87;0.90;;;15.20;2.10;;;;;;5095360;28;20175;-87
2022/09/16 16:18:19;;;;;;;3.87;0.90;;;14.70;11.30;;;;;;5094593;28;20206;-87
2022/09/16 16:24:13;;;;;;;2.60;1.10;;;14.60;12.70;;;;;;5096708;28;20193;-88
2022/09/16 16:26:58;;;;;;;2.37;0.70;;;14.50;17.30;;;;;;5077119;28;20182;-87
2022/09/16 16:32:52;;;;;;;3.93;1.20;;;14.20;23.20;;;;;;5077232;28;20160;-84
2022/09/16 16:35:33;;;;;;;5.53;1.00;;;14.00;31.80;;;;;;5054528;28;20193;-85
2022/09/16 16:38:27;;;;;;;5.53;0.90;;;14.00;38.60;;;;;;5056178;28;20564;-84
2022/09/16 16:40:59;;;;;;;5.03;1.37;;;14.00;42.60;;;;;;5053801;28;20213;-87
2022/09/16 16:43:40;;;;;;;1.90;0.77;;;14.00;41.40;;;;;;5042680;28;20177;-85
2022/09/16 16:46:19;;;;;;;4.87;1.43;;;13.50;49.20;;;;;;5044260;28;20195;-87
2022/09/16 16:49:08;;;;;;;5.20;1.80;;;13.40;58.80;;;;;;5072478;28;20182;-86
2022/09/16 16:55:02;;;;;;;4.73;1.40;;;13.00;74.10;;;;;;5072856;28;20211;-85
2022/09/16 16:57:56;;;;;;;4.83;1.30;;;12.80;82.80;;;;;;5050125;28;20209;-88
2022/09/16 17:00:26;;;;;;;2.83;1.13;;;12.70;83.00;;;;;;5052420;28;20169;-87
2022/09/16 17:02:55;;;;;;;5.20;1.27;;;12.60;88.60;;;;;;5050207;28;20166;-85
2022/09/16 17:05:29;;;;;;;4.20;1.23;;;12.70;90.30;;;;;;5050041;28;20173;-85
2022/09/16 17:08:08;;;;;;;3.97;1.27;;;12.40;91.30;;;;;;5061736;28;20150;-89
2022/09/16 17:11:10;;;;;;;4.23;1.20;;;12.30;91.60;;;;;;5060120;28;20166;-86
2022/09/16 17:17:02;;;;;;;2.00;0.90;;;12.30;92.30;;;;;;5077347;28;20695;-85
2022/09/16 17:19:31;;;;;;;6.40;1.13;;;12.20;93.00;;;;;;5058167;28;20208;-86
2022/09/16 17:22:00;;;;;;;4.50;1.17;;;12.40;93.30;;;;;;5056568;28;20181;-85
2022/09/16 17:25:05;;;;;;;5.47;1.40;;;12.40;93.10;;;;;;5073145;28;20192;-87
2022/09/16 17:30:55;;;;;;;4.07;1.60;;;12.10;88.40;;;;;;4977622;28;20165;-84
2022/09/16 17:33:43;;;;;;;4.43;1.67;;;12.50;86.00;;;;;;5023306;28;20215;-86
2022/09/16 17:36:22;;;;;;;5.47;1.80;;;12.40;83.70;;;;;;5039092;28;20185;-86
2022/09/16 17:46:00;;;;;;;2.53;1.20;;;12.50;74.40;;;;;;4969574;29;20168;-87
2022/09/16 17:48:56;;;;;;;3.37;1.57;;;12.50;72.20;;;;;;5037947;28;20180;-87
2022/09/16 17:52:17;;;;;;;4.90;1.60;;;12.60;73.10;;;;;;4990904;28;20175;-87
2022/09/16 17:55:02;;;;;;;3.67;1.47;;;12.60;72.00;;;;;;5037560;28;20199;-87
2022/09/16 17:57:51;;;;;;;3.97;1.43;;;12.50;76.30;;;;;;5036279;28;20227;-89
2022/09/16 18:00:53;;;;;;;4.60;1.63;;;12.50;76.20;;;;;;5038715;28;20172;-87
2022/09/16 18:07:34;;;;;;;2.90;1.27;;;12.60;79.80;;;;;;4972112;28;20373;-87
2022/09/16 18:10:09;;;;;;;3.87;1.17;;;12.70;76.50;;;;;;4968390;29;20157;-87
2022/09/16 18:12:36;;;;;;;3.93;1.70;;;12.60;72.30;;;;;;5031574;28;20225;-86
2022/09/16 18:15:05;;;;;;;5.23;1.40;;;12.70;72.50;;;;;;5013511;28;20184;-86
2022/09/16 18:17:33;;;;;;;3.80;1.60;;;12.60;78.10;;;;;;5026732;28;20779;-87
2022/09/16 18:20:38;;;;;;;4.90;1.90;;;12.70;79.90;;;;;;5030774;28;20236;-85
2022/09/16 18:23:08;;;;;;;4.33;1.70;;;13.00;75.20;;;;;;5036029;28;20200;-84
2022/09/16 18:25:39;;;;;;;5.83;1.77;;;13.10;72.50;;;;;;5043078;28;20229;-88
2022/09/16 18:28:11;;;;;;;5.47;2.50;;;13.10;69.30;;;;;;5042401;28;20634;-87
2022/09/16 18:31:22;;;;;;;4.50;2.03;;;13.10;67.90;;;;;;5038310;28;20187;-86
2022/09/16 18:33:59;;;;;;;5.67;2.37;;;13.00;68.90;;;;;;5035149;28;20168;-88
2022/09/16 18:39:48;;;;;;;4.23;1.70;;;13.20;69.00;;;;;;4971808;29;20227;-87
2022/09/16 18:42:18;;;;;;;4.63;1.70;;;13.10;69.20;;;;;;5037088;28;20203;-87
2022/09/16 18:45:03;;;;;;;5.97;1.63;;;13.10;73.20;;;;;;5020627;28;20185;-88
2022/09/16 18:47:40;;;;;;;4.73;1.70;;;13.00;78.10;;;;;;4971124;29;20232;-86
2022/09/16 18:50:23;;;;;;;4.53;1.73;;;12.90;80.50;;;;;;5019770;28;20191;-85
2022/09/16 18:53:11;;;;;;;5.30;1.83;;;12.90;81.00;;;;;;5034375;28;20172;-88
2022/09/16 18:55:39;;;;;;;6.63;2.30;;;12.80;79.80;;;;;;5044769;28;20165;-88
2022/09/16 18:58:27;;;;;;;5.10;2.13;;;12.90;82.20;;;;;;4978086;28;20205;-88
2022/09/16 19:01:04;;;;;;;4.40;1.70;;;12.80;77.80;;;;;;5044377;28;20181;-86
2022/09/16 19:04:09;;;;;;;6.90;2.40;;;12.80;78.80;;;;;;4984892;28;20184;-84
2022/09/16 19:06:41;;;;;;;6.23;2.83;;;12.70;83.20;;;;;;5037480;28;20176;-84
2022/09/16 19:09:15;;;;;;;6.63;2.97;;;12.70;89.10;;;;;;4969278;28;20165;-86
2022/09/16 19:15:06;;;;;;;5.63;2.13;;;12.90;91.50;;;;;;4970365;29;20187;-85
2022/09/16 19:17:51;;;;;;;8.30;3.47;;;12.70;86.00;;;;;;5035537;28;20684;-84
2022/09/16 19:20:23;;;;;;;5.23;2.40;;;12.50;85.70;;;;;;5032165;28;20175;-85
2022/09/16 19:22:57;;;;;;;4.77;2.17;;;12.60;82.30;;;;;;5037416;28;20172;-85
2022/09/16 19:25:24;;;;;;;6.70;2.00;;;12.70;80.60;;;;;;5016251;28;20294;-86
2022/09/16 19:27:51;;;;;;;7.17;2.47;;;12.70;72.10;;;;;;5026815;28;20192;-85
2022/09/16 19:30:18;;;;;;;6.70;4.63;;;12.60;73.80;;;;;;5025965;28;20182;-84
2022/09/16 19:32:49;;;;;;;7.87;4.40;;;12.40;77.20;;;;;;4961100;29;20176;-86
2022/09/16 19:35:17;;;;;;;5.00;1.90;;;12.40;82.30;;;;;;4962722;28;20240;-85
2022/09/16 19:37:43;;;;;;;6.73;2.47;;;12.40;85.90;;;;;;5029527;28;20227;-84
2022/09/16 19:40:18;;;;;;;5.87;2.03;;;12.40;86.50;;;;;;5031965;28;20176;-83
2022/09/16 19:42:46;;;;;;;4.23;1.60;;;12.40;85.70;;;;;;5032872;28;20218;-84
2022/09/16 19:45:14;;;;;;;4.43;1.80;;;12.30;90.10;;;;;;5042129;28;20180;-86
2022/09/16 19:47:43;;;;;;;6.63;2.20;;;12.30;90.00;;;;;;5046017;28;20180;-86
2022/09/16 19:50:10;;;;;;;5.60;1.77;;;12.20;90.50;;;;;;5044380;28;20251;-84
2022/09/16 19:52:39;;;;;;;8.80;2.70;;;12.10;91.40;;;;;;5044202;28;20180;-89
2022/09/16 19:55:21;;;;;;;6.30;2.23;;;12.10;92.30;;;;;;5041876;28;20230;-86
2022/09/16 19:58:12;;;;;;;6.30;2.47;;;12.00;93.20;;;;;;5046995;28;20211;-85
2022/09/16 20:00:44;;;;;;;5.33;1.60;;;11.90;94.20;;;;;;5038573;28;20180;-87